createdAt,value
2023-04-30T00:00:08.544Z,6.50
2023-04-30T00:00:42.850Z,6.50
2023-04-30T00:01:15.357Z,6.44
2023-04-30T00:01:48.937Z,6.44
2023-04-30T00:02:21.682Z,6.44
2023-04-30T00:02:54.676Z,6.44
2023-04-30T00:03:28.224Z,6.44
2023-04-30T00:04:00.906Z,6.44
2023-04-30T00:04:33.422Z,6.44
2023-04-30T00:05:08.873Z,6.44
2023-04-30T00:05:41.433Z,6.44
2023-04-30T00:06:13.933Z,6.44
2023-04-30T00:06:47.484Z,6.44
2023-04-30T00:07:19.970Z,6.44
2023-04-30T00:07:53.412Z,6.44
2023-04-30T00:08:26.948Z,6.44
2023-04-30T00:08:59.443Z,6.38
2023-04-30T00:09:33.122Z,6.44
2023-04-30T00:10:06.417Z,6.44
2023-04-30T00:10:38.825Z,6.38
2023-04-30T00:11:12.415Z,6.38
2023-04-30T00:11:44.932Z,6.38
2023-04-30T00:12:17.418Z,6.38
2023-04-30T00:12:50.937Z,6.38
2023-04-30T00:13:23.457Z,6.38
2023-04-30T00:13:57.055Z,6.38
2023-04-30T00:14:30.530Z,6.38
2023-04-30T00:15:05.706Z,6.38
2023-04-30T00:15:38.202Z,6.38
2023-04-30T00:16:12.000Z,6.38
2023-04-30T00:16:44.550Z,6.38
2023-04-30T00:17:17.054Z,6.38
2023-04-30T00:17:50.748Z,6.38
2023-04-30T00:18:23.318Z,6.38
2023-04-30T00:18:55.850Z,6.38
2023-04-30T00:19:29.380Z,6.38
2023-04-30T00:20:01.853Z,6.38
2023-04-30T00:20:35.691Z,6.38
2023-04-30T00:21:08.186Z,6.38
2023-04-30T00:21:41.116Z,6.31
2023-04-30T00:22:14.624Z,6.38
2023-04-30T00:22:47.109Z,6.38
2023-04-30T00:23:20.560Z,6.38
2023-04-30T00:23:53.027Z,6.38
2023-04-30T00:24:25.555Z,6.44
2023-04-30T00:24:59.011Z,6.44
2023-04-30T00:25:31.614Z,6.38
2023-04-30T00:26:04.116Z,6.38
2023-04-30T00:26:37.509Z,6.44
2023-04-30T00:27:09.990Z,6.38
2023-04-30T00:27:42.567Z,6.38
2023-04-30T00:28:16.222Z,6.38
2023-04-30T00:28:48.748Z,6.38
2023-04-30T00:29:21.190Z,6.38
2023-04-30T00:29:55.059Z,6.31
2023-04-30T00:30:29.148Z,6.31
2023-04-30T00:31:02.571Z,6.31
2023-04-30T00:31:36.102Z,6.31
2023-04-30T00:32:08.684Z,6.31
2023-04-30T00:32:41.263Z,6.31
2023-04-30T00:33:14.870Z,6.25
2023-04-30T00:33:47.351Z,6.25
2023-04-30T00:34:20.171Z,6.25
2023-04-30T00:34:53.656Z,6.25
2023-04-30T00:35:26.217Z,6.25
2023-04-30T00:35:58.787Z,6.25
2023-04-30T00:36:32.628Z,6.25
2023-04-30T00:37:05.105Z,6.19
2023-04-30T00:37:37.572Z,6.19
2023-04-30T00:38:11.003Z,6.19
2023-04-30T00:38:44.251Z,6.19
2023-04-30T00:39:17.232Z,6.19
2023-04-30T00:39:51.000Z,6.19
2023-04-30T00:40:23.492Z,6.19
2023-04-30T00:40:56.385Z,6.19
2023-04-30T00:41:31.286Z,6.19
2023-04-30T00:42:03.824Z,6.19
2023-04-30T00:42:36.328Z,6.19
2023-04-30T00:43:09.880Z,6.13
2023-04-30T00:43:42.392Z,6.13
2023-04-30T00:44:14.923Z,6.13
2023-04-30T00:44:48.400Z,6.13
2023-04-30T00:45:22.144Z,6.13
2023-04-30T00:45:57.005Z,6.13
2023-04-30T00:46:29.735Z,6.13
2023-04-30T00:47:02.297Z,6.13
2023-04-30T00:47:36.620Z,6.13
2023-04-30T00:48:09.257Z,6.13
2023-04-30T00:48:41.762Z,6.13
2023-04-30T00:49:15.700Z,6.13
2023-04-30T00:49:48.323Z,6.13
2023-04-30T00:50:20.948Z,6.13
2023-04-30T00:50:54.467Z,6.13
2023-04-30T00:51:28.118Z,6.13
2023-04-30T00:52:01.676Z,6.13
2023-04-30T00:52:35.148Z,6.13
2023-04-30T00:53:07.746Z,6.06
2023-04-30T00:53:41.277Z,6.13
2023-04-30T00:54:15.435Z,6.13
2023-04-30T00:54:48.232Z,6.13
2023-04-30T00:55:21.584Z,6.13
2023-04-30T00:55:56.549Z,6.13
2023-04-30T00:56:29.833Z,6.13
2023-04-30T00:57:05.395Z,6.13
2023-04-30T00:57:40.732Z,6.13
2023-04-30T00:58:13.266Z,6.13
2023-04-30T00:58:46.499Z,6.13
2023-04-30T00:59:20.246Z,6.13
2023-04-30T00:59:53.650Z,6.13
2023-04-30T01:00:27.003Z,6.13
2023-04-30T01:01:02.095Z,6.13
2023-04-30T01:01:34.728Z,6.13
2023-04-30T01:02:07.959Z,6.13
2023-04-30T01:02:42.212Z,6.13
2023-04-30T01:03:14.999Z,6.13
2023-04-30T01:03:48.139Z,6.13
2023-04-30T01:04:22.154Z,6.13
2023-04-30T01:04:55.270Z,6.06
2023-04-30T01:05:27.852Z,6.06
2023-04-30T01:06:01.734Z,6.06
2023-04-30T01:06:34.581Z,6.06
2023-04-30T01:07:07.655Z,6.06
2023-04-30T01:07:45.062Z,6.06
2023-04-30T01:08:17.922Z,6.00
2023-04-30T01:08:50.888Z,6.00
2023-04-30T01:09:24.736Z,6.00
2023-04-30T01:09:57.670Z,6.00
2023-04-30T01:10:36.255Z,6.00
2023-04-30T01:11:21.564Z,6.00
2023-04-30T01:12:03.462Z,5.94
2023-04-30T01:12:43.673Z,5.94
2023-04-30T01:13:23.317Z,5.94
2023-04-30T01:14:02.872Z,5.94
2023-04-30T01:14:42.614Z,5.94
2023-04-30T01:15:24.274Z,5.94
2023-04-30T01:16:08.442Z,5.94
2023-04-30T01:16:46.647Z,5.88
2023-04-30T01:17:29.173Z,5.88
2023-04-30T01:18:07.910Z,5.88
2023-04-30T01:18:45.662Z,5.88
2023-04-30T01:19:29.129Z,5.88
2023-04-30T01:20:03.031Z,5.88
2023-04-30T01:20:39.154Z,5.88
2023-04-30T01:21:14.814Z,5.88
2023-04-30T01:21:49.224Z,5.88
2023-04-30T01:22:36.429Z,5.88
2023-04-30T01:23:19.462Z,5.81
2023-04-30T01:24:10.963Z,5.81
2023-04-30T01:25:08.163Z,5.81
2023-04-30T01:25:53.570Z,5.81
2023-04-30T01:26:38.028Z,5.81
2023-04-30T01:27:24.534Z,5.75
2023-04-30T01:28:05.339Z,5.75
2023-04-30T01:28:40.870Z,5.75
2023-04-30T01:29:16.726Z,5.75
2023-04-30T01:29:49.712Z,5.69
2023-04-30T01:30:22.768Z,5.69
2023-04-30T01:30:56.281Z,5.69
2023-04-30T01:31:29.359Z,5.69
2023-04-30T01:32:02.732Z,5.69
2023-04-30T01:32:35.326Z,5.69
2023-04-30T01:33:09.135Z,5.69
2023-04-30T01:33:41.701Z,5.69
2023-04-30T01:34:14.375Z,5.69
2023-04-30T01:34:47.223Z,5.69
2023-04-30T01:35:20.774Z,5.69
2023-04-30T01:36:21.417Z,5.69
2023-04-30T01:37:12.969Z,5.69
2023-04-30T01:38:00.104Z,5.69
2023-04-30T01:38:50.730Z,5.69
2023-04-30T01:39:41.146Z,5.69
2023-04-30T01:40:24.446Z,5.69
2023-04-30T01:41:01.617Z,5.69
2023-04-30T01:41:39.523Z,5.69
2023-04-30T01:42:20.503Z,5.69
2023-04-30T01:43:03.891Z,5.63
2023-04-30T01:43:45.701Z,5.63
2023-04-30T01:44:31.615Z,5.69
2023-04-30T01:45:23.197Z,5.63
2023-04-30T01:46:06.074Z,5.69
2023-04-30T01:46:46.583Z,5.69
2023-04-30T01:47:27.125Z,5.69
2023-04-30T01:48:09.551Z,5.69
2023-04-30T01:48:52.651Z,5.63
2023-04-30T01:49:37.052Z,5.63
2023-04-30T01:50:17.884Z,5.63
2023-04-30T01:50:53.342Z,5.63
2023-04-30T01:51:31.473Z,5.63
2023-04-30T01:52:25.488Z,5.63
2023-04-30T01:53:02.001Z,5.63
2023-04-30T01:53:40.685Z,5.63
2023-04-30T01:54:22.768Z,5.63
2023-04-30T01:55:01.028Z,5.63
2023-04-30T01:55:41.349Z,5.63
2023-04-30T01:56:24.686Z,5.63
2023-04-30T01:57:04.559Z,5.63
2023-04-30T01:57:42.552Z,5.63
2023-04-30T01:58:17.882Z,5.63
2023-04-30T01:58:52.818Z,5.63
2023-04-30T01:59:26.431Z,5.63
2023-04-30T01:59:59.214Z,5.63
2023-04-30T02:00:32.668Z,5.63
2023-04-30T02:01:05.545Z,5.69
2023-04-30T02:01:38.114Z,5.69
2023-04-30T02:02:11.655Z,5.69
2023-04-30T02:02:44.444Z,5.69
2023-04-30T02:03:16.997Z,5.75
2023-04-30T02:03:50.620Z,5.75
2023-04-30T02:04:23.265Z,5.75
2023-04-30T02:04:56.046Z,5.75
2023-04-30T02:05:29.482Z,5.75
2023-04-30T02:06:01.996Z,5.75
2023-04-30T02:06:34.612Z,5.81
2023-04-30T02:07:07.173Z,5.81
2023-04-30T02:07:42.727Z,5.81
2023-04-30T02:08:15.564Z,5.81
2023-04-30T02:08:48.129Z,5.81
2023-04-30T02:09:24.116Z,5.81
2023-04-30T02:09:56.753Z,5.81
2023-04-30T02:10:30.647Z,5.81
2023-04-30T02:11:04.767Z,5.81
2023-04-30T02:11:37.270Z,5.81
2023-04-30T02:12:09.739Z,5.75
2023-04-30T02:12:42.356Z,5.75
2023-04-30T02:13:17.391Z,5.75
2023-04-30T02:13:50.533Z,5.75
2023-04-30T02:14:23.169Z,5.75
2023-04-30T02:14:58.945Z,5.75
2023-04-30T02:15:32.407Z,5.69
2023-04-30T02:16:05.406Z,5.69
2023-04-30T02:16:38.061Z,5.69
2023-04-30T02:17:11.617Z,5.69
2023-04-30T02:17:44.463Z,5.69
2023-04-30T02:18:17.281Z,5.69
2023-04-30T02:18:50.929Z,5.69
2023-04-30T02:19:23.482Z,5.63
2023-04-30T02:19:56.225Z,5.63
2023-04-30T02:20:29.880Z,5.63
2023-04-30T02:21:02.943Z,5.63
2023-04-30T02:21:35.483Z,5.56
2023-04-30T02:22:09.883Z,5.56
2023-04-30T02:22:42.594Z,5.56
2023-04-30T02:23:15.640Z,5.56
2023-04-30T02:23:49.311Z,5.56
2023-04-30T02:24:21.800Z,5.56
2023-04-30T02:24:55.769Z,5.56
2023-04-30T02:25:30.262Z,5.56
2023-04-30T02:26:03.114Z,5.50
2023-04-30T02:26:35.618Z,5.50
2023-04-30T02:27:09.110Z,5.50
2023-04-30T02:27:41.670Z,5.50
2023-04-30T02:28:16.890Z,5.50
2023-04-30T02:28:50.323Z,5.50
2023-04-30T02:29:22.774Z,5.50
2023-04-30T02:29:55.591Z,5.50
2023-04-30T02:30:30.246Z,5.50
2023-04-30T02:31:02.811Z,5.50
2023-04-30T02:31:35.394Z,5.50
2023-04-30T02:32:09.014Z,5.50
2023-04-30T02:32:41.558Z,5.50
2023-04-30T02:33:15.221Z,5.50
2023-04-30T02:33:48.715Z,5.44
2023-04-30T02:34:21.176Z,5.44
2023-04-30T02:34:53.651Z,5.44
2023-04-30T02:35:27.215Z,5.44
2023-04-30T02:36:00.800Z,5.44
2023-04-30T02:36:36.507Z,5.44
2023-04-30T02:37:09.159Z,5.38
2023-04-30T02:37:42.779Z,5.38
2023-04-30T02:38:15.262Z,5.38
2023-04-30T02:38:47.785Z,5.38
2023-04-30T02:39:21.315Z,5.38
2023-04-30T02:39:54.837Z,5.38
2023-04-30T02:40:27.563Z,5.38
2023-04-30T02:41:02.287Z,5.38
2023-04-30T02:41:34.707Z,5.38
2023-04-30T02:42:07.442Z,5.38
2023-04-30T02:42:40.937Z,5.31
2023-04-30T02:43:13.379Z,5.31
2023-04-30T02:43:47.335Z,5.31
2023-04-30T02:44:19.805Z,5.31
2023-04-30T02:44:53.283Z,5.31
2023-04-30T02:45:25.892Z,5.31
2023-04-30T02:45:58.422Z,5.31
2023-04-30T02:46:31.935Z,5.31
2023-04-30T02:47:04.433Z,5.31
2023-04-30T02:47:37.258Z,5.31
2023-04-30T02:48:10.838Z,5.31
2023-04-30T02:48:43.294Z,5.31
2023-04-30T02:49:18.651Z,5.31
2023-04-30T02:49:52.449Z,5.31
2023-04-30T02:50:25.374Z,5.31
2023-04-30T02:50:57.842Z,5.25
2023-04-30T02:51:31.329Z,5.25
2023-04-30T02:52:03.965Z,5.25
2023-04-30T02:52:37.482Z,5.25
2023-04-30T02:53:09.950Z,5.19
2023-04-30T02:53:42.399Z,5.19
2023-04-30T02:54:17.533Z,5.19
2023-04-30T02:54:50.345Z,5.19
2023-04-30T02:55:22.821Z,5.19
2023-04-30T02:55:56.318Z,5.19
2023-04-30T02:56:29.016Z,5.19
2023-04-30T02:57:01.831Z,5.19
2023-04-30T02:57:35.343Z,5.19
2023-04-30T02:58:08.840Z,5.19
2023-04-30T02:58:41.538Z,5.19
2023-04-30T02:59:15.583Z,5.19
2023-04-30T02:59:49.171Z,5.19
2023-04-30T03:00:21.937Z,5.19
2023-04-30T03:00:54.586Z,5.13
2023-04-30T03:01:27.698Z,5.19
2023-04-30T03:02:01.745Z,5.13
2023-04-30T03:02:34.316Z,5.19
2023-04-30T03:03:09.123Z,5.13
2023-04-30T03:03:41.839Z,5.13
2023-04-30T03:04:14.352Z,5.13
2023-04-30T03:04:47.903Z,5.13
2023-04-30T03:05:20.450Z,5.13
2023-04-30T03:05:52.935Z,5.13
2023-04-30T03:06:26.487Z,5.13
2023-04-30T03:07:00.452Z,5.13
2023-04-30T03:07:33.220Z,5.13
2023-04-30T03:08:06.783Z,5.13
2023-04-30T03:08:39.285Z,5.13
2023-04-30T03:09:11.746Z,5.13
2023-04-30T03:09:46.543Z,5.13
2023-04-30T03:10:19.276Z,5.13
2023-04-30T03:10:52.236Z,5.13
2023-04-30T03:11:25.807Z,5.13
2023-04-30T03:11:58.356Z,5.13
2023-04-30T03:12:30.829Z,5.13
2023-04-30T03:13:04.431Z,5.13
2023-04-30T03:13:36.897Z,5.13
2023-04-30T03:14:09.390Z,5.13
2023-04-30T03:14:44.260Z,5.13
2023-04-30T03:15:16.993Z,5.13
2023-04-30T03:15:49.577Z,5.13
2023-04-30T03:16:22.789Z,5.13
2023-04-30T03:16:56.238Z,5.13
2023-04-30T03:17:28.768Z,5.13
2023-04-30T03:18:02.159Z,5.13
2023-04-30T03:18:34.797Z,5.13
2023-04-30T03:19:08.275Z,5.13
2023-04-30T03:19:40.816Z,5.19
2023-04-30T03:20:14.318Z,5.19
2023-04-30T03:20:48.126Z,5.19
2023-04-30T03:21:20.734Z,5.19
2023-04-30T03:21:54.456Z,5.19
2023-04-30T03:22:28.066Z,5.25
2023-04-30T03:23:00.551Z,5.19
2023-04-30T03:23:35.064Z,5.25
2023-04-30T03:24:08.685Z,5.25
2023-04-30T03:24:41.178Z,5.25
2023-04-30T03:25:13.939Z,5.25
2023-04-30T03:25:47.515Z,5.25
2023-04-30T03:26:20.915Z,5.25
2023-04-30T03:26:53.393Z,5.19
2023-04-30T03:27:26.816Z,5.25
2023-04-30T03:27:59.269Z,5.19
2023-04-30T03:28:31.832Z,5.19
2023-04-30T03:29:05.366Z,5.19
2023-04-30T03:29:37.953Z,5.19
2023-04-30T03:30:12.061Z,5.19
2023-04-30T03:30:47.828Z,5.19
2023-04-30T03:31:20.298Z,5.19
2023-04-30T03:31:52.960Z,5.19
2023-04-30T03:32:26.750Z,5.19
2023-04-30T03:32:59.446Z,5.19
2023-04-30T03:33:32.182Z,5.19
2023-04-30T03:34:06.022Z,5.19
2023-04-30T03:34:39.012Z,5.19
2023-04-30T03:35:11.509Z,5.19
2023-04-30T03:35:45.035Z,5.19
2023-04-30T03:36:18.617Z,5.19
2023-04-30T03:36:51.060Z,5.19
2023-04-30T03:37:24.596Z,5.19
2023-04-30T03:37:57.074Z,5.19
2023-04-30T03:38:30.995Z,5.19
2023-04-30T03:39:04.661Z,5.19
2023-04-30T03:39:38.240Z,5.19
2023-04-30T03:40:11.647Z,5.13
2023-04-30T03:40:45.137Z,5.13
2023-04-30T03:41:17.645Z,5.13
2023-04-30T03:41:50.253Z,5.13
2023-04-30T03:42:23.818Z,5.13
2023-04-30T03:42:56.562Z,5.13
2023-04-30T03:43:29.053Z,5.13
2023-04-30T03:44:03.134Z,5.13
2023-04-30T03:44:35.738Z,5.13
2023-04-30T03:45:09.115Z,5.13
2023-04-30T03:45:43.114Z,5.06
2023-04-30T03:46:16.721Z,5.13
2023-04-30T03:46:50.110Z,5.06
2023-04-30T03:47:22.585Z,5.06
2023-04-30T03:47:56.058Z,5.06
2023-04-30T03:48:29.674Z,5.06
2023-04-30T03:49:03.666Z,5.06
2023-04-30T03:49:37.229Z,5.06
2023-04-30T03:50:10.551Z,5.06
2023-04-30T03:50:43.467Z,5.06
2023-04-30T03:51:20.473Z,5.06
2023-04-30T03:51:53.011Z,5.00
2023-04-30T03:52:26.542Z,5.06
2023-04-30T03:53:00.576Z,5.06
2023-04-30T03:53:33.093Z,5.06
2023-04-30T03:54:06.885Z,5.06
2023-04-30T03:54:40.373Z,5.06
2023-04-30T03:55:13.105Z,5.06
2023-04-30T03:55:45.849Z,5.06
2023-04-30T03:56:18.621Z,5.00
2023-04-30T03:56:52.174Z,5.00
2023-04-30T03:57:24.707Z,5.00
2023-04-30T03:57:57.679Z,5.00
2023-04-30T03:58:33.658Z,5.06
2023-04-30T03:59:07.739Z,5.06
2023-04-30T03:59:40.506Z,5.06
2023-04-30T04:00:14.288Z,5.06
2023-04-30T04:00:50.932Z,5.06
2023-04-30T04:01:24.618Z,5.06
2023-04-30T04:01:57.172Z,5.06
2023-04-30T04:02:32.357Z,5.06
2023-04-30T04:03:04.925Z,5.13
2023-04-30T04:03:37.675Z,5.13
2023-04-30T04:04:11.576Z,5.13
2023-04-30T04:04:44.234Z,5.13
2023-04-30T04:05:16.878Z,5.13
2023-04-30T04:05:51.477Z,5.13
2023-04-30T04:06:24.120Z,5.13
2023-04-30T04:06:56.810Z,5.13
2023-04-30T04:07:30.338Z,5.13
2023-04-30T04:08:02.994Z,5.13
2023-04-30T04:08:36.695Z,5.13
2023-04-30T04:09:10.223Z,5.13
2023-04-30T04:09:42.826Z,5.13
2023-04-30T04:10:15.662Z,5.19
2023-04-30T04:10:48.316Z,5.13
2023-04-30T04:11:22.144Z,5.13
2023-04-30T04:11:54.669Z,5.13
2023-04-30T04:12:27.149Z,5.13
2023-04-30T04:13:00.662Z,5.13
2023-04-30T04:13:33.308Z,5.13
2023-04-30T04:14:06.661Z,5.13
2023-04-30T04:14:40.114Z,5.13
2023-04-30T04:15:13.422Z,5.13
2023-04-30T04:15:46.771Z,5.13
2023-04-30T04:16:22.215Z,5.13
2023-04-30T04:16:54.959Z,5.13
2023-04-30T04:17:27.626Z,5.06
2023-04-30T04:18:01.889Z,5.06
2023-04-30T04:18:34.504Z,5.06
2023-04-30T04:19:08.109Z,5.06
2023-04-30T04:19:40.865Z,5.06
2023-04-30T04:20:14.196Z,5.06
2023-04-30T04:20:48.779Z,5.06
2023-04-30T04:21:22.621Z,5.06
2023-04-30T04:21:56.366Z,5.00
2023-04-30T04:22:28.853Z,5.00
2023-04-30T04:23:01.308Z,5.00
2023-04-30T04:23:34.762Z,5.06
2023-04-30T04:24:08.737Z,5.06
2023-04-30T04:24:41.713Z,5.00
2023-04-30T04:25:19.341Z,5.00
2023-04-30T04:25:52.389Z,5.00
2023-04-30T04:26:26.171Z,5.00
2023-04-30T04:26:59.686Z,5.00
2023-04-30T04:27:32.291Z,5.00
2023-04-30T04:28:05.074Z,5.00
2023-04-30T04:28:39.123Z,5.00
2023-04-30T04:29:12.323Z,5.00
2023-04-30T04:29:46.173Z,5.00
2023-04-30T04:30:20.485Z,4.94
2023-04-30T04:30:54.641Z,4.94
2023-04-30T04:31:28.580Z,4.94
2023-04-30T04:32:04.405Z,4.94
2023-04-30T04:32:42.180Z,4.94
2023-04-30T04:33:14.793Z,4.94
2023-04-30T04:33:48.199Z,4.94
2023-04-30T04:34:20.805Z,4.94
2023-04-30T04:34:54.409Z,4.88
2023-04-30T04:35:27.989Z,4.88
2023-04-30T04:36:00.833Z,4.88
2023-04-30T04:36:34.234Z,4.88
2023-04-30T04:37:08.487Z,4.81
2023-04-30T04:37:41.150Z,4.88
2023-04-30T04:38:13.904Z,4.81
2023-04-30T04:38:47.895Z,4.81
2023-04-30T04:39:20.415Z,4.81
2023-04-30T04:39:53.023Z,4.81
2023-04-30T04:40:27.176Z,4.81
2023-04-30T04:41:00.550Z,4.81
2023-04-30T04:41:34.842Z,4.88
2023-04-30T04:42:09.835Z,4.88
2023-04-30T04:42:42.774Z,4.88
2023-04-30T04:43:15.712Z,4.88
2023-04-30T04:43:49.243Z,4.88
2023-04-30T04:44:22.453Z,4.88
2023-04-30T04:44:55.015Z,4.88
2023-04-30T04:45:28.575Z,4.88
2023-04-30T04:46:01.807Z,4.88
2023-04-30T04:46:38.649Z,4.94
2023-04-30T04:47:12.882Z,4.94
2023-04-30T04:47:45.507Z,4.94
2023-04-30T04:48:18.000Z,4.94
2023-04-30T04:48:52.012Z,4.94
2023-04-30T04:49:24.614Z,4.94
2023-04-30T04:49:57.828Z,5.00
2023-04-30T04:50:31.399Z,5.00
2023-04-30T04:51:04.586Z,5.00
2023-04-30T04:51:37.068Z,5.00
2023-04-30T04:52:10.510Z,5.00
2023-04-30T04:52:43.091Z,5.00
2023-04-30T04:53:15.804Z,5.00
2023-04-30T04:53:49.523Z,5.06
2023-04-30T04:54:22.065Z,5.06
2023-04-30T04:54:54.788Z,5.06
2023-04-30T04:55:28.290Z,5.06
2023-04-30T04:56:01.026Z,5.13
2023-04-30T04:56:34.064Z,5.13
2023-04-30T04:57:07.525Z,5.13
2023-04-30T04:57:40.666Z,5.19
2023-04-30T04:58:13.137Z,5.19
2023-04-30T04:58:47.402Z,5.19
2023-04-30T04:59:19.904Z,5.19
2023-04-30T04:59:54.560Z,5.19
2023-04-30T05:00:28.577Z,5.19
2023-04-30T05:01:02.967Z,5.25
2023-04-30T05:01:37.975Z,5.25
2023-04-30T05:02:11.456Z,5.25
2023-04-30T05:02:43.985Z,5.25
2023-04-30T05:03:17.994Z,5.31
2023-04-30T05:03:51.126Z,5.31
2023-04-30T05:04:25.361Z,5.31
2023-04-30T05:04:58.888Z,5.38
2023-04-30T05:05:31.357Z,5.38
2023-04-30T05:06:04.151Z,5.44
2023-04-30T05:06:38.027Z,5.44
2023-04-30T05:07:10.612Z,5.44
2023-04-30T05:07:43.382Z,5.50
2023-04-30T05:08:16.816Z,5.50
2023-04-30T05:08:49.267Z,5.56
2023-04-30T05:09:21.725Z,5.56
2023-04-30T05:09:56.017Z,5.56
2023-04-30T05:10:28.761Z,5.63
2023-04-30T05:11:01.827Z,5.63
2023-04-30T05:11:35.316Z,5.69
2023-04-30T05:12:07.822Z,5.69
2023-04-30T05:12:41.291Z,5.69
2023-04-30T05:13:13.861Z,5.69
2023-04-30T05:13:46.612Z,5.75
2023-04-30T05:14:19.143Z,5.75
2023-04-30T05:14:54.352Z,5.75
2023-04-30T05:15:26.878Z,5.81
2023-04-30T05:15:59.414Z,5.81
2023-04-30T05:16:32.891Z,5.88
2023-04-30T05:17:07.024Z,5.88
2023-04-30T05:17:39.585Z,5.88
2023-04-30T05:18:13.087Z,5.88
2023-04-30T05:18:45.576Z,5.94
2023-04-30T05:19:19.030Z,5.94
2023-04-30T05:19:51.649Z,6.00
2023-04-30T05:20:24.468Z,6.00
2023-04-30T05:20:57.994Z,6.00
2023-04-30T05:21:32.090Z,6.06
2023-04-30T05:22:04.804Z,6.06
2023-04-30T05:22:38.196Z,6.13
2023-04-30T05:23:10.881Z,6.13
2023-04-30T05:23:44.321Z,6.19
2023-04-30T05:24:17.844Z,6.19
2023-04-30T05:24:52.988Z,6.25
2023-04-30T05:25:26.587Z,6.31
2023-04-30T05:25:59.012Z,6.31
2023-04-30T05:26:31.551Z,6.38
2023-04-30T05:27:05.576Z,6.44
2023-04-30T05:27:39.548Z,6.44
2023-04-30T05:28:12.152Z,6.50
2023-04-30T05:28:45.674Z,6.50
2023-04-30T05:29:18.157Z,6.50
2023-04-30T05:29:51.691Z,6.56
2023-04-30T05:30:24.397Z,6.56
2023-04-30T05:30:56.912Z,6.63
2023-04-30T05:31:32.352Z,6.63
2023-04-30T05:32:08.086Z,6.69
2023-04-30T05:32:41.681Z,6.69
2023-04-30T05:33:14.265Z,6.69
2023-04-30T05:33:46.762Z,6.69
2023-04-30T05:34:20.249Z,6.69
2023-04-30T05:34:53.022Z,6.75
2023-04-30T05:35:25.713Z,6.81
2023-04-30T05:35:59.129Z,6.81
2023-04-30T05:36:32.167Z,6.88
2023-04-30T05:37:04.724Z,6.88
2023-04-30T05:37:38.147Z,6.94
2023-04-30T05:38:10.757Z,6.94
2023-04-30T05:38:43.190Z,6.94
2023-04-30T05:39:16.664Z,7.00
2023-04-30T05:39:49.276Z,7.00
2023-04-30T05:40:21.735Z,7.06
2023-04-30T05:40:55.216Z,7.06
2023-04-30T05:41:27.686Z,7.06
2023-04-30T05:42:00.161Z,7.06
2023-04-30T05:42:34.420Z,7.06
2023-04-30T05:43:06.927Z,7.06
2023-04-30T05:43:39.453Z,7.13
2023-04-30T05:44:12.899Z,7.13
2023-04-30T05:44:45.516Z,7.13
2023-04-30T05:45:18.169Z,7.13
2023-04-30T05:45:51.601Z,7.19
2023-04-30T05:46:24.186Z,7.19
2023-04-30T05:46:56.849Z,7.25
2023-04-30T05:47:31.697Z,7.25
2023-04-30T05:48:05.258Z,7.31
2023-04-30T05:48:39.112Z,7.31
2023-04-30T05:49:12.871Z,7.38
2023-04-30T05:49:45.511Z,7.38
2023-04-30T05:50:19.165Z,7.38
2023-04-30T05:50:51.633Z,7.38
2023-04-30T05:51:24.241Z,7.44
2023-04-30T05:51:57.918Z,7.44
2023-04-30T05:52:30.802Z,7.44
2023-04-30T05:53:03.290Z,7.50
2023-04-30T05:53:36.770Z,7.50
2023-04-30T05:54:09.212Z,7.56
2023-04-30T05:54:42.633Z,7.56
2023-04-30T05:55:15.273Z,7.56
2023-04-30T05:55:47.701Z,7.63
2023-04-30T05:56:21.268Z,7.63
2023-04-30T05:56:53.810Z,7.69
2023-04-30T05:57:26.425Z,7.69
2023-04-30T05:57:59.949Z,7.69
2023-04-30T05:58:33.503Z,7.69
2023-04-30T05:59:06.001Z,7.75
2023-04-30T05:59:39.434Z,7.75
2023-04-30T06:00:13.167Z,7.75
2023-04-30T06:00:48.658Z,7.81
2023-04-30T06:01:23.233Z,7.81
2023-04-30T06:01:55.948Z,7.81
2023-04-30T06:02:29.950Z,7.88
2023-04-30T06:03:03.537Z,7.88
2023-04-30T06:03:36.074Z,7.88
2023-04-30T06:04:09.316Z,7.94
2023-04-30T06:04:43.496Z,7.94
2023-04-30T06:05:16.480Z,7.94
2023-04-30T06:05:49.213Z,8.00
2023-04-30T06:06:22.838Z,8.00
2023-04-30T06:06:55.304Z,8.00
2023-04-30T06:07:27.749Z,8.00
2023-04-30T06:08:01.177Z,8.00
2023-04-30T06:08:33.694Z,8.00
2023-04-30T06:09:06.341Z,8.00
2023-04-30T06:09:39.783Z,8.00
2023-04-30T06:10:12.658Z,8.00
2023-04-30T06:10:45.266Z,8.00
2023-04-30T06:11:18.729Z,8.06
2023-04-30T06:11:52.120Z,8.06
2023-04-30T06:12:24.752Z,8.06
2023-04-30T06:12:58.245Z,8.06
2023-04-30T06:13:31.622Z,8.06
2023-04-30T06:14:04.677Z,8.06
2023-04-30T06:14:38.191Z,8.13
2023-04-30T06:15:11.093Z,8.13
2023-04-30T06:15:43.591Z,8.13
2023-04-30T06:16:17.155Z,8.19
2023-04-30T06:16:50.364Z,8.19
2023-04-30T06:17:22.963Z,8.25
2023-04-30T06:17:57.825Z,8.25
2023-04-30T06:18:30.413Z,8.31
2023-04-30T06:19:03.839Z,8.31
2023-04-30T06:19:36.587Z,8.31
2023-04-30T06:20:09.817Z,8.31
2023-04-30T06:20:43.313Z,8.38
2023-04-30T06:21:15.795Z,8.38
2023-04-30T06:21:48.320Z,8.38
2023-04-30T06:22:21.743Z,8.38
2023-04-30T06:22:54.360Z,8.38
2023-04-30T06:23:26.889Z,8.38
2023-04-30T06:24:00.462Z,8.44
2023-04-30T06:24:33.060Z,8.44
2023-04-30T06:25:07.631Z,8.44
2023-04-30T06:25:40.187Z,8.44
2023-04-30T06:26:15.045Z,8.50
2023-04-30T06:26:48.522Z,8.50
2023-04-30T06:27:21.012Z,8.50
2023-04-30T06:27:54.164Z,8.50
2023-04-30T06:28:27.721Z,8.56
2023-04-30T06:29:00.334Z,8.56
2023-04-30T06:29:33.103Z,8.56
2023-04-30T06:30:07.763Z,8.56
2023-04-30T06:30:41.264Z,8.56
2023-04-30T06:31:14.878Z,8.56
2023-04-30T06:31:47.491Z,8.56
2023-04-30T06:32:20.125Z,8.56
2023-04-30T06:32:53.579Z,8.63
2023-04-30T06:33:27.490Z,8.63
2023-04-30T06:34:00.109Z,8.63
2023-04-30T06:34:34.003Z,8.63
2023-04-30T06:35:07.500Z,8.63
2023-04-30T06:35:41.535Z,8.63
2023-04-30T06:36:14.019Z,8.69
2023-04-30T06:36:46.505Z,8.69
2023-04-30T06:37:20.122Z,8.69
2023-04-30T06:37:52.592Z,8.63
2023-04-30T06:38:25.106Z,8.69
2023-04-30T06:38:58.544Z,8.69
2023-04-30T06:39:31.035Z,8.69
2023-04-30T06:40:04.259Z,8.69
2023-04-30T06:40:37.779Z,8.69
2023-04-30T06:41:10.349Z,8.69
2023-04-30T06:41:43.919Z,8.69
2023-04-30T06:42:16.427Z,8.69
2023-04-30T06:42:49.895Z,8.69
2023-04-30T06:43:22.364Z,8.69
2023-04-30T06:43:54.917Z,8.69
2023-04-30T06:44:28.334Z,8.69
2023-04-30T06:45:01.374Z,8.75
2023-04-30T06:45:34.094Z,8.75
2023-04-30T06:46:07.762Z,8.75
2023-04-30T06:46:40.584Z,8.75
2023-04-30T06:47:13.091Z,8.75
2023-04-30T06:47:47.235Z,8.75
2023-04-30T06:48:19.735Z,8.75
2023-04-30T06:48:53.534Z,8.75
2023-04-30T06:49:27.031Z,8.75
2023-04-30T06:49:59.494Z,8.81
2023-04-30T06:50:33.020Z,8.81
2023-04-30T06:51:05.555Z,8.81
2023-04-30T06:51:38.973Z,8.81
2023-04-30T06:52:11.435Z,8.81
2023-04-30T06:52:44.320Z,8.88
2023-04-30T06:53:17.837Z,8.88
2023-04-30T06:53:50.268Z,8.88
2023-04-30T06:54:26.550Z,8.94
2023-04-30T06:54:59.058Z,8.94
2023-04-30T06:55:32.506Z,8.94
2023-04-30T06:56:05.484Z,8.94
2023-04-30T06:56:37.944Z,8.94
2023-04-30T06:57:12.327Z,8.94
2023-04-30T06:57:44.791Z,8.94
2023-04-30T06:58:18.706Z,8.94
2023-04-30T06:58:51.246Z,8.94
2023-04-30T06:59:23.762Z,8.94
2023-04-30T06:59:57.421Z,8.94
2023-04-30T07:00:29.916Z,9.00
2023-04-30T07:01:05.371Z,9.00
2023-04-30T07:01:37.889Z,9.06
2023-04-30T07:02:10.537Z,9.06
2023-04-30T07:02:44.390Z,9.06
2023-04-30T07:03:17.103Z,9.06
2023-04-30T07:03:51.625Z,9.06
2023-04-30T07:04:26.201Z,9.13
2023-04-30T07:04:58.932Z,9.13
2023-04-30T07:05:32.400Z,9.19
2023-04-30T07:06:05.443Z,9.19
2023-04-30T07:06:38.139Z,9.19
2023-04-30T07:07:12.360Z,9.19
2023-04-30T07:07:44.830Z,9.19
2023-04-30T07:08:17.666Z,9.19
2023-04-30T07:08:51.160Z,9.25
2023-04-30T07:09:23.888Z,9.25
2023-04-30T07:09:57.008Z,9.31
2023-04-30T07:10:31.244Z,9.31
2023-04-30T07:11:04.002Z,9.38
2023-04-30T07:11:36.770Z,9.38
2023-04-30T07:12:12.067Z,9.38
2023-04-30T07:12:44.995Z,9.38
2023-04-30T07:13:17.567Z,9.38
2023-04-30T07:13:51.435Z,9.38
2023-04-30T07:14:23.860Z,9.38
2023-04-30T07:14:56.316Z,9.38
2023-04-30T07:15:29.707Z,9.44
2023-04-30T07:16:02.352Z,9.44
2023-04-30T07:16:35.008Z,9.44
2023-04-30T07:17:08.492Z,9.44
2023-04-30T07:17:41.899Z,9.44
2023-04-30T07:18:14.370Z,9.44
2023-04-30T07:18:49.276Z,9.44
2023-04-30T07:19:21.745Z,9.44
2023-04-30T07:19:56.886Z,9.44
2023-04-30T07:20:29.863Z,9.38
2023-04-30T07:21:06.371Z,9.38
2023-04-30T07:21:39.027Z,9.38
2023-04-30T07:22:11.714Z,9.44
2023-04-30T07:22:46.124Z,9.38
2023-04-30T07:23:18.786Z,9.38
2023-04-30T07:23:51.617Z,9.38
2023-04-30T07:24:26.004Z,9.44
2023-04-30T07:24:58.637Z,9.44
2023-04-30T07:25:32.482Z,9.44
2023-04-30T07:26:05.297Z,9.44
2023-04-30T07:26:42.637Z,9.38
2023-04-30T07:27:16.339Z,9.38
2023-04-30T07:27:57.000Z,9.38
2023-04-30T07:28:30.205Z,9.38
2023-04-30T07:29:11.123Z,9.38
2023-04-30T07:29:47.089Z,9.38
2023-04-30T07:30:19.986Z,9.44
2023-04-30T07:30:53.170Z,9.44
2023-04-30T07:31:30.008Z,9.44
2023-04-30T07:32:03.301Z,9.50